Oak Hill, WV

12:49 PM EST on February 27, 2015 (GMT -0500)
Raleigh County Memorial | Change Station
CLOSE
Current Station
Airport
Location: Beckley,
Elevation: 2513 ft
Nearby Weather Stations

Elev 2513 ft 37.79 °N, 81.12 °W | Updated 58 minutes ago

Overcast
Overcast
17 °F
Feels Like 7 °F
N
8
Wind Variable Wind from North

Today
High -- | Low -- °F
--% Chance of Precip.
Yesterday
High -- | Low -- °F
Precip. -- in
6:59 AM 6:15 PM
Waxing Gibbous, 70% visible
Pressure 30.51 in
Visibility 8.0 miles
Clouds Overcast 2000 ft
Windchill 7 °F
Dew Point 8 °F
Humidity 68%
Rainfall 0.00 in
Snow Depth Not available.
UV 2 out of 12
Pollen .70 out of 12
Air Quality Not available.
Flu Activity Not available.
METAR KBKW 271651Z AUTO 36007KT 8SM OVC020 M08/M13 A3036 RMK AO2 SNB17E27 SLP329 P0000 T10831133

More Conditions Fewer Conditions

Pressure 30.51 in
Visibility 8.0 miles
Clouds Overcast 2000 ft
Windchill 7 °F
Dew Point 8 °F
Humidity 68%
Rainfall 0.00 in
Snow Depth Not available.
UV 2 out of 12
Pollen .70 out of 12
Air Quality Not available.
Flu Activity Not available.
METAR KBKW 271651Z AUTO 36007KT 8SM OVC020 M08/M13 A3036 RMK AO2 SNB17E27 SLP329 P0000 T10831133

More Conditions Fewer Conditions

10-Day Weather Forecast

Almanac

Astronomy

Feb. 27, 2015 Rise Set
Actual Time
Civil Twilight
Nautical Twilight
Astronomical Twilight
Moon
Length of Visible Light
Length of Day
Tomorrow will be .
, % of the Moon is Illuminated

Today's Extremes

State Highs State Lows

Community

WunderPhotos

Upload Photos

1,800,758 photos uploaded!

WunderBlogs® & News

Nearby

Air Quality

  Air Quality AQ Index Pollutant
Not available.

Snow Depth

Station Depth Elevation

Earthquake Activity

City Distance Mag. Time & Date
Minimum magnitude displayed is 2.5.

Coastal Water Temperatures

Place Temperature

Nearby Weather Stations